sensor_id;sensor_type;location;lat;lon;timestamp;pressure;altitude;pressure_sealevel;temperature;humidity
62592;BME280;48659;41.622;2.276;2024-03-02T00:01:41;99137.03;;;6.97;46.68
62592;BME280;48659;41.622;2.276;2024-03-02T00:04:08;99137.53;;;7.33;45.82
62592;BME280;48659;41.622;2.276;2024-03-02T00:06:40;99141.93;;;5.32;49.64
62592;BME280;48659;41.622;2.276;2024-03-02T00:09:09;99144.14;;;7.33;48.01
62592;BME280;48659;41.622;2.276;2024-03-02T00:11:37;99141.28;;;6.13;48.61
62592;BME280;48659;41.622;2.276;2024-03-02T00:14:05;99135.88;;;6.66;49.60
62592;BME280;48659;41.622;2.276;2024-03-02T00:16:33;99136.36;;;7.00;47.05
62592;BME280;48659;41.622;2.276;2024-03-02T00:19:02;99134.86;;;6.50;48.19
62592;BME280;48659;41.622;2.276;2024-03-02T00:21:30;99136.96;;;6.39;48.37
62592;BME280;48659;41.622;2.276;2024-03-02T00:23:58;99136.86;;;7.64;45.97
62592;BME280;48659;41.622;2.276;2024-03-02T00:26:27;99135.76;;;8.50;43.90
62592;BME280;48659;41.622;2.276;2024-03-02T00:28:56;99134.00;;;8.96;43.00
62592;BME280;48659;41.622;2.276;2024-03-02T00:31:24;99126.78;;;8.60;43.57
62592;BME280;48659;41.622;2.276;2024-03-02T00:33:52;99119.54;;;7.96;44.54
62592;BME280;48659;41.622;2.276;2024-03-02T00:36:24;99121.37;;;9.34;42.73
62592;BME280;48659;41.622;2.276;2024-03-02T00:38:53;99124.41;;;7.29;46.03
62592;BME280;48659;41.622;2.276;2024-03-02T00:41:22;99122.84;;;7.62;46.07
62592;BME280;48659;41.622;2.276;2024-03-02T00:43:57;99126.35;;;4.73;50.21
62592;BME280;48659;41.622;2.276;2024-03-02T00:46:26;99126.45;;;4.67;52.04
62592;BME280;48659;41.622;2.276;2024-03-02T00:48:56;99116.80;;;6.20;50.15
62592;BME280;48659;41.622;2.276;2024-03-02T00:51:25;99116.00;;;6.37;49.48
62592;BME280;48659;41.622;2.276;2024-03-02T00:53:54;99119.02;;;5.53;50.02
62592;BME280;48659;41.622;2.276;2024-03-02T00:56:21;99119.70;;;5.64;49.82
62592;BME280;48659;41.622;2.276;2024-03-02T00:58:50;99117.63;;;7.43;47.29
62592;BME280;48659;41.622;2.276;2024-03-02T01:01:17;99115.70;;;7.80;45.57
62592;BME280;48659;41.622;2.276;2024-03-02T01:03:45;99113.20;;;6.01;49.54
62592;BME280;48659;41.622;2.276;2024-03-02T01:06:13;99112.98;;;7.46;46.68
62592;BME280;48659;41.622;2.276;2024-03-02T01:08:40;99113.55;;;6.30;48.28
62592;BME280;48659;41.622;2.276;2024-03-02T01:11:07;99113.49;;;5.61;50.36
62592;BME280;48659;41.622;2.276;2024-03-02T01:13:40;99109.22;;;5.50;49.70
62592;BME280;48659;41.622;2.276;2024-03-02T01:16:07;99109.33;;;7.44;47.39
62592;BME280;48659;41.622;2.276;2024-03-02T01:18:40;99098.78;;;5.31;49.91
62592;BME280;48659;41.622;2.276;2024-03-02T01:21:07;99094.28;;;5.06;52.21
62592;BME280;48659;41.622;2.276;2024-03-02T01:23:39;99097.94;;;5.04;52.06
62592;BME280;48659;41.622;2.276;2024-03-02T01:26:07;99087.35;;;7.80;46.69
62592;BME280;48659;41.622;2.276;2024-03-02T01:28:36;99079.61;;;8.49;44.36
62592;BME280;48659;41.622;2.276;2024-03-02T01:31:03;99079.81;;;9.05;43.45
62592;BME280;48659;41.622;2.276;2024-03-02T01:33:39;99081.49;;;9.53;42.61
62592;BME280;48659;41.622;2.276;2024-03-02T01:36:07;99079.87;;;6.26;47.70
62592;BME280;48659;41.622;2.276;2024-03-02T01:38:35;99079.40;;;7.92;45.55
62592;BME280;48659;41.622;2.276;2024-03-02T01:41:02;99075.98;;;8.40;44.74
62592;BME280;48659;41.622;2.276;2024-03-02T01:43:31;99074.05;;;8.79;43.60
62592;BME280;48659;41.622;2.276;2024-03-02T01:45:59;99072.04;;;6.13;46.86
62592;BME280;48659;41.622;2.276;2024-03-02T01:48:27;99063.52;;;5.98;48.78
62592;BME280;48659;41.622;2.276;2024-03-02T01:50:55;99060.55;;;6.80;47.18
62592;BME280;48659;41.622;2.276;2024-03-02T01:53:22;99058.13;;;5.92;50.04
62592;BME280;48659;41.622;2.276;2024-03-02T01:55:50;99050.02;;;6.84;47.91
62592;BME280;48659;41.622;2.276;2024-03-02T01:58:17;99050.84;;;7.18;47.90
62592;BME280;48659;41.622;2.276;2024-03-02T02:00:44;99047.94;;;6.32;48.39
62592;BME280;48659;41.622;2.276;2024-03-02T02:03:12;99037.05;;;8.19;46.20
62592;BME280;48659;41.622;2.276;2024-03-02T02:05:42;99038.28;;;7.15;46.08
62592;BME280;48659;41.622;2.276;2024-03-02T02:08:10;99033.61;;;9.11;43.63
62592;BME280;48659;41.622;2.276;2024-03-02T02:10:37;99032.89;;;8.23;43.42
62592;BME280;48659;41.622;2.276;2024-03-02T02:13:05;99034.73;;;8.72;44.06
62592;BME280;48659;41.622;2.276;2024-03-02T02:15:40;99027.98;;;8.63;43.40
62592;BME280;48659;41.622;2.276;2024-03-02T02:18:08;99022.99;;;10.58;40.25
62592;BME280;48659;41.622;2.276;2024-03-02T02:20:36;99020.10;;;10.85;39.36
62592;BME280;48659;41.622;2.276;2024-03-02T02:23:04;99010.74;;;10.24;40.89
62592;BME280;48659;41.622;2.276;2024-03-02T02:25:40;99011.62;;;9.98;40.03
62592;BME280;48659;41.622;2.276;2024-03-02T02:28:07;99007.81;;;10.28;40.17
62592;BME280;48659;41.622;2.276;2024-03-02T02:30:35;99007.21;;;10.47;39.80
62592;BME280;48659;41.622;2.276;2024-03-02T02:33:02;99005.94;;;9.90;40.40
62592;BME280;48659;41.622;2.276;2024-03-02T02:35:38;99003.41;;;10.29;40.11
62592;BME280;48659;41.622;2.276;2024-03-02T02:38:06;99005.75;;;10.25;40.60
62592;BME280;48659;41.622;2.276;2024-03-02T02:40:42;99002.98;;;9.48;40.89
62592;BME280;48659;41.622;2.276;2024-03-02T02:43:09;99000.82;;;7.32;44.91
62592;BME280;48659;41.622;2.276;2024-03-02T02:45:42;98997.59;;;7.42;43.88
62592;BME280;48659;41.622;2.276;2024-03-02T02:48:10;98991.83;;;8.82;42.93
62592;BME280;48659;41.622;2.276;2024-03-02T02:50:41;98984.86;;;7.04;45.84
62592;BME280;48659;41.622;2.276;2024-03-02T02:53:08;98991.51;;;8.91;43.11
62592;BME280;48659;41.622;2.276;2024-03-02T02:55:40;98991.83;;;8.48;42.82
62592;BME280;48659;41.622;2.276;2024-03-02T02:58:07;98991.98;;;9.46;42.02
62592;BME280;48659;41.622;2.276;2024-03-02T03:00:34;98981.57;;;9.07;41.85
62592;BME280;48659;41.622;2.276;2024-03-02T03:03:02;98979.71;;;9.02;41.81
62592;BME280;48659;41.622;2.276;2024-03-02T03:05:29;98981.19;;;5.76;48.27
62592;BME280;48659;41.622;2.276;2024-03-02T03:07:57;98975.88;;;5.40;49.22
62592;BME280;48659;41.622;2.276;2024-03-02T03:10:24;98963.26;;;5.30;50.45
62592;BME280;48659;41.622;2.276;2024-03-02T03:12:52;98958.54;;;6.09;47.58
62592;BME280;48659;41.622;2.276;2024-03-02T03:15:19;98953.69;;;5.68;50.97
62592;BME280;48659;41.622;2.276;2024-03-02T03:17:46;98953.21;;;4.09;55.01
62592;BME280;48659;41.622;2.276;2024-03-02T03:20:13;98946.77;;;4.52;54.39
62592;BME280;48659;41.622;2.276;2024-03-02T03:22:42;98943.79;;;6.58;49.10
62592;BME280;48659;41.622;2.276;2024-03-02T03:25:09;98942.63;;;8.32;46.44
62592;BME280;48659;41.622;2.276;2024-03-02T03:27:37;98943.36;;;7.82;44.94
62592;BME280;48659;41.622;2.276;2024-03-02T03:34:16;98928.77;;;8.17;42.03
62592;BME280;48659;41.622;2.276;2024-03-02T03:41:18;98913.50;;;6.27;45.99
62592;BME280;48659;41.622;2.276;2024-03-02T03:43:47;98913.56;;;8.61;42.72
62592;BME280;48659;41.622;2.276;2024-03-02T03:46:14;98915.35;;;9.45;42.05
62592;BME280;48659;41.622;2.276;2024-03-02T03:48:42;98918.98;;;9.76;42.36
62592;BME280;48659;41.622;2.276;2024-03-02T03:51:08;98921.32;;;10.16;41.81
62592;BME280;48659;41.622;2.276;2024-03-02T03:53:41;98928.94;;;9.14;42.26
62592;BME280;48659;41.622;2.276;2024-03-02T03:56:08;98928.26;;;9.98;41.73
62592;BME280;48659;41.622;2.276;2024-03-02T03:58:41;98932.88;;;9.44;41.96
62592;BME280;48659;41.622;2.276;2024-03-02T04:01:08;98937.69;;;10.66;40.59
62592;BME280;48659;41.622;2.276;2024-03-02T04:03:40;98942.01;;;10.07;41.01
62592;BME280;48659;41.622;2.276;2024-03-02T04:06:07;98937.05;;;9.84;41.94
62592;BME280;48659;41.622;2.276;2024-03-02T04:08:42;98943.78;;;9.54;41.94
62592;BME280;48659;41.622;2.276;2024-03-02T04:11:09;98941.16;;;10.95;40.06
62592;BME280;48659;41.622;2.276;2024-03-02T04:13:36;98944.23;;;9.97;40.86
62592;BME280;48659;41.622;2.276;2024-03-02T04:16:04;98945.91;;;9.81;42.37
62592;BME280;48659;41.622;2.276;2024-03-02T04:18:39;98948.47;;;9.53;42.11
62592;BME280;48659;41.622;2.276;2024-03-02T04:21:06;98944.86;;;9.03;43.41
62592;BME280;48659;41.622;2.276;2024-03-02T04:23:40;98953.58;;;8.25;45.10
62592;BME280;48659;41.622;2.276;2024-03-02T04:26:07;98951.52;;;10.04;41.63
62592;BME280;48659;41.622;2.276;2024-03-02T04:28:35;98952.32;;;10.65;40.26
62592;BME280;48659;41.622;2.276;2024-03-02T04:31:03;98950.95;;;11.08;39.57
62592;BME280;48659;41.622;2.276;2024-03-02T04:33:30;98941.87;;;12.06;38.59
62592;BME280;48659;41.622;2.276;2024-03-02T04:36:06;98942.70;;;11.69;38.73
62592;BME280;48659;41.622;2.276;2024-03-02T04:38:34;98939.53;;;11.31;39.16
62592;BME280;48659;41.622;2.276;2024-03-02T04:41:02;98936.48;;;11.49;39.44
62592;BME280;48659;41.622;2.276;2024-03-02T04:43:29;98938.23;;;10.70;40.32
62592;BME280;48659;41.622;2.276;2024-03-02T04:45:56;98934.01;;;10.73;39.64
62592;BME280;48659;41.622;2.276;2024-03-02T04:48:23;98923.37;;;11.79;39.12
62592;BME280;48659;41.622;2.276;2024-03-02T04:50:50;98926.40;;;10.60;40.11
62592;BME280;48659;41.622;2.276;2024-03-02T04:53:17;98931.44;;;10.84;40.35
62592;BME280;48659;41.622;2.276;2024-03-02T04:55:44;98930.91;;;9.99;41.29
62592;BME280;48659;41.622;2.276;2024-03-02T04:58:12;98926.89;;;10.06;41.30
62592;BME280;48659;41.622;2.276;2024-03-02T05:00:41;98922.04;;;9.90;40.98
62592;BME280;48659;41.622;2.276;2024-03-02T05:03:09;98919.78;;;10.82;40.01
62592;BME280;48659;41.622;2.276;2024-03-02T05:05:36;98917.54;;;10.07;40.82
62592;BME280;48659;41.622;2.276;2024-03-02T05:08:04;98920.04;;;10.81;39.27
62592;BME280;48659;41.622;2.276;2024-03-02T05:10:40;98918.80;;;11.10;38.77
62592;BME280;48659;41.622;2.276;2024-03-02T05:13:07;98915.22;;;10.55;39.62
62592;BME280;48659;41.622;2.276;2024-03-02T05:15:40;98918.33;;;10.19;40.27
62592;BME280;48659;41.622;2.276;2024-03-02T05:18:08;98910.19;;;11.76;38.59
62592;BME280;48659;41.622;2.276;2024-03-02T05:20:35;98904.84;;;10.79;39.46
62592;BME280;48659;41.622;2.276;2024-03-02T05:23:03;98901.93;;;10.99;40.00
62592;BME280;48659;41.622;2.276;2024-03-02T05:25:40;98899.74;;;10.24;41.50
62592;BME280;48659;41.622;2.276;2024-03-02T05:28:06;98898.78;;;9.22;42.79
62592;BME280;48659;41.622;2.276;2024-03-02T05:30:34;98900.22;;;8.33;44.18
62592;BME280;48659;41.622;2.276;2024-03-02T05:33:01;98900.90;;;6.79;48.21
62592;BME280;48659;41.622;2.276;2024-03-02T05:35:29;98901.89;;;5.54;52.70
62592;BME280;48659;41.622;2.276;2024-03-02T05:37:56;98897.82;;;5.99;50.50
62592;BME280;48659;41.622;2.276;2024-03-02T05:40:23;98899.95;;;5.37;54.09
62592;BME280;48659;41.622;2.276;2024-03-02T05:42:51;98892.61;;;5.30;51.26
62592;BME280;48659;41.622;2.276;2024-03-02T05:45:18;98892.14;;;6.56;50.83
62592;BME280;48659;41.622;2.276;2024-03-02T05:47:46;98891.53;;;7.10;49.92
62592;BME280;48659;41.622;2.276;2024-03-02T05:50:14;98894.46;;;6.85;48.62
62592;BME280;48659;41.622;2.276;2024-03-02T05:52:41;98893.74;;;7.08;48.38
62592;BME280;48659;41.622;2.276;2024-03-02T05:55:08;98893.68;;;7.61;47.91
62592;BME280;48659;41.622;2.276;2024-03-02T05:57:40;98894.15;;;7.51;46.80
62592;BME280;48659;41.622;2.276;2024-03-02T06:00:08;98890.01;;;8.37;45.88
62592;BME280;48659;41.622;2.276;2024-03-02T06:02:39;98890.32;;;7.83;45.57
62592;BME280;48659;41.622;2.276;2024-03-02T06:05:06;98893.48;;;8.11;46.39
62592;BME280;48659;41.622;2.276;2024-03-02T06:07:41;98892.73;;;4.85;52.11
62592;BME280;48659;41.622;2.276;2024-03-02T06:10:08;98886.68;;;5.22;51.07
62592;BME280;48659;41.622;2.276;2024-03-02T06:12:41;98885.30;;;5.05;51.87
62592;BME280;48659;41.622;2.276;2024-03-02T06:15:09;98886.81;;;4.94;54.30
62592;BME280;48659;41.622;2.276;2024-03-02T06:17:36;98882.86;;;5.69;51.19
62592;BME280;48659;41.622;2.276;2024-03-02T06:20:04;98880.50;;;7.13;49.09
62592;BME280;48659;41.622;2.276;2024-03-02T06:22:46;98877.93;;;7.53;48.26
62592;BME280;48659;41.622;2.276;2024-03-02T06:25:13;98881.23;;;8.41;46.44
62592;BME280;48659;41.622;2.276;2024-03-02T06:27:41;98880.46;;;7.67;45.88
62592;BME280;48659;41.622;2.276;2024-03-02T06:30:10;98871.72;;;9.27;44.65
62592;BME280;48659;41.622;2.276;2024-03-02T06:32:41;98877.36;;;7.68;45.76
62592;BME280;48659;41.622;2.276;2024-03-02T06:35:08;98871.55;;;9.32;44.49
62592;BME280;48659;41.622;2.276;2024-03-02T06:37:40;98876.57;;;8.44;43.77
62592;BME280;48659;41.622;2.276;2024-03-02T06:40:08;98872.35;;;9.69;42.34
62592;BME280;48659;41.622;2.276;2024-03-02T06:42:40;98871.88;;;8.35;43.53
62592;BME280;48659;41.622;2.276;2024-03-02T06:45:07;98873.88;;;9.22;43.12
62592;BME280;48659;41.622;2.276;2024-03-02T06:47:40;98878.29;;;8.08;45.04
62592;BME280;48659;41.622;2.276;2024-03-02T06:50:08;98879.62;;;8.04;44.83
62592;BME280;48659;41.622;2.276;2024-03-02T06:52:42;98874.78;;;8.59;44.01
62592;BME280;48659;41.622;2.276;2024-03-02T06:55:09;98871.90;;;8.38;44.76
62592;BME280;48659;41.622;2.276;2024-03-02T06:57:41;98876.29;;;8.56;43.95
62592;BME280;48659;41.622;2.276;2024-03-02T07:00:09;98876.63;;;8.81;43.85
62592;BME280;48659;41.622;2.276;2024-03-02T07:02:40;98871.37;;;8.54;43.53
62592;BME280;48659;41.622;2.276;2024-03-02T07:05:08;98871.18;;;9.09;43.50
62592;BME280;48659;41.622;2.276;2024-03-02T07:07:41;98866.38;;;8.86;43.07
62592;BME280;48659;41.622;2.276;2024-03-02T07:10:09;98868.48;;;9.90;42.79
62592;BME280;48659;41.622;2.276;2024-03-02T07:12:40;98868.36;;;9.19;42.99
62592;BME280;48659;41.622;2.276;2024-03-02T07:15:08;98870.89;;;10.01;42.35
62592;BME280;48659;41.622;2.276;2024-03-02T07:17:35;98868.91;;;9.93;43.27
62592;BME280;48659;41.622;2.276;2024-03-02T07:20:03;98871.79;;;8.43;45.32
62592;BME280;48659;41.622;2.276;2024-03-02T07:22:42;98873.93;;;9.82;42.96
62592;BME280;48659;41.622;2.276;2024-03-02T07:25:10;98868.35;;;10.67;41.59
62592;BME280;48659;41.622;2.276;2024-03-02T07:27:41;98867.55;;;10.22;41.00
62592;BME280;48659;41.622;2.276;2024-03-02T07:30:09;98868.51;;;11.20;40.90
62592;BME280;48659;41.622;2.276;2024-03-02T07:32:37;98867.14;;;11.24;41.06
62592;BME280;48659;41.622;2.276;2024-03-02T07:35:05;98863.95;;;11.27;39.83
62592;BME280;48659;41.622;2.276;2024-03-02T07:37:32;98865.64;;;11.19;40.54
62592;BME280;48659;41.622;2.276;2024-03-02T07:40:00;98863.88;;;11.54;39.92
62592;BME280;48659;41.622;2.276;2024-03-02T07:42:27;98863.17;;;11.65;40.26
62592;BME280;48659;41.622;2.276;2024-03-02T07:44:55;98860.60;;;11.07;42.66
62592;BME280;48659;41.622;2.276;2024-03-02T07:47:22;98857.98;;;11.93;39.58
62592;BME280;48659;41.622;2.276;2024-03-02T07:49:49;98859.91;;;10.71;39.86
62592;BME280;48659;41.622;2.276;2024-03-02T07:52:17;98865.46;;;11.72;40.01
62592;BME280;48659;41.622;2.276;2024-03-02T07:54:44;98867.51;;;11.46;38.72
62592;BME280;48659;41.622;2.276;2024-03-02T07:57:12;98867.23;;;11.87;39.94
62592;BME280;48659;41.622;2.276;2024-03-02T07:59:39;98869.14;;;11.63;39.44
62592;BME280;48659;41.622;2.276;2024-03-02T08:02:07;98867.50;;;12.15;38.11
62592;BME280;48659;41.622;2.276;2024-03-02T08:04:42;98862.44;;;10.59;39.27
62592;BME280;48659;41.622;2.276;2024-03-02T08:07:09;98865.98;;;11.16;40.14
62592;BME280;48659;41.622;2.276;2024-03-02T08:09:41;98864.47;;;11.93;37.75
62592;BME280;48659;41.622;2.276;2024-03-02T08:12:09;98863.09;;;11.74;39.20
62592;BME280;48659;41.622;2.276;2024-03-02T08:14:37;98857.14;;;11.06;38.87
62592;BME280;48659;41.622;2.276;2024-03-02T08:17:04;98852.53;;;12.22;37.71
62592;BME280;48659;41.622;2.276;2024-03-02T08:19:41;98851.13;;;12.73;37.12
62592;BME280;48659;41.622;2.276;2024-03-02T08:22:08;98851.74;;;12.10;38.44
62592;BME280;48659;41.622;2.276;2024-03-02T08:24:35;98842.70;;;12.81;36.25
62592;BME280;48659;41.622;2.276;2024-03-02T08:27:03;98845.47;;;12.83;35.84
62592;BME280;48659;41.622;2.276;2024-03-02T08:29:46;98846.01;;;12.71;37.06
62592;BME280;48659;41.622;2.276;2024-03-02T08:32:13;98836.25;;;13.26;35.68
62592;BME280;48659;41.622;2.276;2024-03-02T08:34:41;98830.75;;;13.09;34.85
62592;BME280;48659;41.622;2.276;2024-03-02T08:37:08;98830.67;;;14.23;34.53
62592;BME280;48659;41.622;2.276;2024-03-02T08:39:40;98829.20;;;13.27;34.80
62592;BME280;48659;41.622;2.276;2024-03-02T08:42:08;98820.07;;;14.08;34.06
62592;BME280;48659;41.622;2.276;2024-03-02T08:44:40;98816.66;;;13.49;34.04
62592;BME280;48659;41.622;2.276;2024-03-02T08:47:07;98811.70;;;13.08;34.54
62592;BME280;48659;41.622;2.276;2024-03-02T08:49:35;98809.08;;;11.78;35.55
62592;BME280;48659;41.622;2.276;2024-03-02T08:52:03;98807.87;;;13.18;34.38
62592;BME280;48659;41.622;2.276;2024-03-02T08:54:44;98812.16;;;12.27;35.80
62592;BME280;48659;41.622;2.276;2024-03-02T08:57:11;98797.91;;;12.56;34.77
62592;BME280;48659;41.622;2.276;2024-03-02T08:59:40;98796.80;;;12.90;33.69
62592;BME280;48659;41.622;2.276;2024-03-02T09:02:07;98796.30;;;12.25;35.41
62592;BME280;48659;41.622;2.276;2024-03-02T09:04:40;98801.04;;;11.66;36.32
62592;BME280;48659;41.622;2.276;2024-03-02T09:07:08;98802.49;;;11.89;35.69
62592;BME280;48659;41.622;2.276;2024-03-02T09:09:35;98791.39;;;12.76;34.54
62592;BME280;48659;41.622;2.276;2024-03-02T09:12:03;98785.36;;;12.94;34.39
62592;BME280;48659;41.622;2.276;2024-03-02T09:14:44;98789.13;;;12.85;34.47
62592;BME280;48659;41.622;2.276;2024-03-02T09:17:11;98788.22;;;12.24;35.04
62592;BME280;48659;41.622;2.276;2024-03-02T09:19:40;98789.89;;;11.66;35.10
62592;BME280;48659;41.622;2.276;2024-03-02T09:22:08;98780.04;;;12.54;34.53
62592;BME280;48659;41.622;2.276;2024-03-02T09:24:40;98773.25;;;13.34;32.75
62592;BME280;48659;41.622;2.276;2024-03-02T09:27:08;98767.78;;;12.84;33.71
62592;BME280;48659;41.622;2.276;2024-03-02T09:29:41;98772.75;;;12.62;32.82
62592;BME280;48659;41.622;2.276;2024-03-02T09:32:12;98763.15;;;12.35;34.06
62592;BME280;48659;41.622;2.276;2024-03-02T09:34:40;98755.67;;;12.88;33.88
62592;BME280;48659;41.622;2.276;2024-03-02T09:37:08;98746.94;;;13.85;32.74
62592;BME280;48659;41.622;2.276;2024-03-02T09:39:41;98737.03;;;13.66;31.88
62592;BME280;48659;41.622;2.276;2024-03-02T09:42:10;98741.21;;;14.03;31.91
62592;BME280;48659;41.622;2.276;2024-03-02T09:44:38;98739.46;;;14.02;31.51
62592;BME280;48659;41.622;2.276;2024-03-02T09:47:07;98740.34;;;14.85;30.94
62592;BME280;48659;41.622;2.276;2024-03-02T09:49:35;98729.19;;;14.60;31.71
62592;BME280;48659;41.622;2.276;2024-03-02T09:52:03;98731.19;;;14.97;31.81
62592;BME280;48659;41.622;2.276;2024-03-02T09:54:48;98732.72;;;15.24;31.95
62592;BME280;48659;41.622;2.276;2024-03-02T09:57:15;98729.14;;;14.58;31.50
62592;BME280;48659;41.622;2.276;2024-03-02T09:59:43;98722.59;;;15.17;30.76
62592;BME280;48659;41.622;2.276;2024-03-02T10:02:11;98726.80;;;14.87;30.91
62592;BME280;48659;41.622;2.276;2024-03-02T10:04:38;98721.49;;;14.57;31.59
62592;BME280;48659;41.622;2.276;2024-03-02T10:07:14;98712.60;;;14.20;31.87
62592;BME280;48659;41.622;2.276;2024-03-02T10:09:44;98713.30;;;14.95;32.57
62592;BME280;48659;41.622;2.276;2024-03-02T10:12:13;98702.44;;;15.50;31.49
62592;BME280;48659;41.622;2.276;2024-03-02T10:14:41;98699.41;;;15.47;31.48
62592;BME280;48659;41.622;2.276;2024-03-02T10:17:09;98695.98;;;15.55;30.25
62592;BME280;48659;41.622;2.276;2024-03-02T10:19:38;98688.79;;;15.80;29.69
62592;BME280;48659;41.622;2.276;2024-03-02T10:22:06;98692.68;;;15.61;30.62
62592;BME280;48659;41.622;2.276;2024-03-02T10:24:42;98678.06;;;15.27;29.74
62592;BME280;48659;41.622;2.276;2024-03-02T10:27:15;98675.10;;;15.11;30.11
62592;BME280;48659;41.622;2.276;2024-03-02T10:29:46;98673.40;;;16.21;28.56
62592;BME280;48659;41.622;2.276;2024-03-02T10:32:15;98674.07;;;16.60;28.25
62592;BME280;48659;41.622;2.276;2024-03-02T10:34:45;98665.98;;;15.74;28.63
62592;BME280;48659;41.622;2.276;2024-03-02T10:37:14;98663.96;;;16.02;28.61
62592;BME280;48659;41.622;2.276;2024-03-02T10:39:42;98650.67;;;16.24;27.98
62592;BME280;48659;41.622;2.276;2024-03-02T10:42:09;98649.79;;;16.53;27.91
62592;BME280;48659;41.622;2.276;2024-03-02T10:44:41;98645.51;;;15.38;28.40
62592;BME280;48659;41.622;2.276;2024-03-02T10:47:09;98640.75;;;16.14;28.43
62592;BME280;48659;41.622;2.276;2024-03-02T10:49:42;98647.42;;;14.29;30.49
62592;BME280;48659;41.622;2.276;2024-03-02T10:52:10;98636.72;;;14.68;29.76
62592;BME280;48659;41.622;2.276;2024-03-02T10:54:37;98629.91;;;16.48;28.52
62592;BME280;48659;41.622;2.276;2024-03-02T10:57:05;98625.48;;;16.30;28.05
62592;BME280;48659;41.622;2.276;2024-03-02T10:59:51;98615.62;;;16.42;27.57
62592;BME280;48659;41.622;2.276;2024-03-02T11:02:21;98618.56;;;14.65;29.92
62592;BME280;48659;41.622;2.276;2024-03-02T11:04:49;98609.16;;;15.01;28.69
62592;BME280;48659;41.622;2.276;2024-03-02T11:07:18;98603.91;;;16.40;28.30
62592;BME280;48659;41.622;2.276;2024-03-02T11:09:54;98597.11;;;16.08;28.46
62592;BME280;48659;41.622;2.276;2024-03-02T11:12:28;98590.56;;;16.33;27.98
62592;BME280;48659;41.622;2.276;2024-03-02T11:14:56;98582.19;;;15.60;27.74
62592;BME280;48659;41.622;2.276;2024-03-02T11:17:25;98587.40;;;16.54;27.61
62592;BME280;48659;41.622;2.276;2024-03-02T11:19:53;98583.04;;;15.25;28.08
62592;BME280;48659;41.622;2.276;2024-03-02T11:22:21;98575.98;;;17.65;26.34
62592;BME280;48659;41.622;2.276;2024-03-02T11:24:50;98579.53;;;14.84;28.50
62592;BME280;48659;41.622;2.276;2024-03-02T11:28:00;98566.34;;;16.77;27.29
62592;BME280;48659;41.622;2.276;2024-03-02T11:30:59;98549.06;;;17.08;27.51
62592;BME280;48659;41.622;2.276;2024-03-02T11:33:27;98546.59;;;17.03;27.11
62592;BME280;48659;41.622;2.276;2024-03-02T11:35:56;98540.51;;;17.09;26.21
62592;BME280;48659;41.622;2.276;2024-03-02T11:38:29;98535.75;;;16.88;27.65
62592;BME280;48659;41.622;2.276;2024-03-02T11:40:57;98533.42;;;17.48;27.12
62592;BME280;48659;41.622;2.276;2024-03-02T11:43:26;98527.68;;;17.25;27.38
62592;BME280;48659;41.622;2.276;2024-03-02T11:45:58;98517.68;;;15.42;29.02
62592;BME280;48659;41.622;2.276;2024-03-02T11:48:26;98522.52;;;15.76;29.38
62592;BME280;48659;41.622;2.276;2024-03-02T11:50:58;98518.58;;;15.55;28.92
62592;BME280;48659;41.622;2.276;2024-03-02T11:53:28;98506.51;;;16.36;28.35
62592;BME280;48659;41.622;2.276;2024-03-02T11:55:56;98493.07;;;16.73;27.40
62592;BME280;48659;41.622;2.276;2024-03-02T11:58:24;98489.26;;;17.60;27.11
62592;BME280;48659;41.622;2.276;2024-03-02T12:00:51;98484.75;;;15.04;29.99
62592;BME280;48659;41.622;2.276;2024-03-02T12:03:21;98479.18;;;16.72;29.36
62592;BME280;48659;41.622;2.276;2024-03-02T12:05:50;98473.60;;;17.07;27.52
62592;BME280;48659;41.622;2.276;2024-03-02T12:08:17;98467.71;;;17.89;27.25
62592;BME280;48659;41.622;2.276;2024-03-02T12:10:56;98462.80;;;17.37;27.36
62592;BME280;48659;41.622;2.276;2024-03-02T12:13:24;98452.67;;;17.91;26.83
62592;BME280;48659;41.622;2.276;2024-03-02T12:15:53;98443.74;;;17.97;26.42
62592;BME280;48659;41.622;2.276;2024-03-02T12:18:21;98445.47;;;17.28;27.97
62592;BME280;48659;41.622;2.276;2024-03-02T12:20:49;98443.08;;;17.01;28.21
62592;BME280;48659;41.622;2.276;2024-03-02T12:23:18;98435.95;;;17.80;28.20
62592;BME280;48659;41.622;2.276;2024-03-02T12:25:46;98433.63;;;18.14;27.93
62592;BME280;48659;41.622;2.276;2024-03-02T12:28:13;98422.78;;;16.83;28.82
62592;BME280;48659;41.622;2.276;2024-03-02T12:30:42;98418.37;;;16.70;28.99
62592;BME280;48659;41.622;2.276;2024-03-02T12:33:11;98407.43;;;15.48;32.57
62592;BME280;48659;41.622;2.276;2024-03-02T12:35:41;98407.32;;;16.04;33.16
62592;BME280;48659;41.622;2.276;2024-03-02T12:38:08;98413.01;;;17.14;34.44
62592;BME280;48659;41.622;2.276;2024-03-02T12:40:41;98410.69;;;17.36;35.00
62592;BME280;48659;41.622;2.276;2024-03-02T12:43:08;98397.63;;;16.85;36.32
62592;BME280;48659;41.622;2.276;2024-03-02T12:45:41;98395.84;;;15.42;38.45
62592;BME280;48659;41.622;2.276;2024-03-02T12:48:08;98379.62;;;16.27;38.62
62592;BME280;48659;41.622;2.276;2024-03-02T12:50:41;98382.61;;;15.80;39.42
62592;BME280;48659;41.622;2.276;2024-03-02T12:53:14;98376.85;;;16.12;39.53
62592;BME280;48659;41.622;2.276;2024-03-02T12:55:43;98377.13;;;15.20;41.30
62592;BME280;48659;41.622;2.276;2024-03-02T12:58:18;98368.71;;;16.26;39.36
62592;BME280;48659;41.622;2.276;2024-03-02T13:00:45;98365.90;;;15.02;40.14
62592;BME280;48659;41.622;2.276;2024-03-02T13:03:12;98374.16;;;16.86;37.39
62592;BME280;48659;41.622;2.276;2024-03-02T13:05:40;98369.05;;;16.29;37.44
62592;BME280;48659;41.622;2.276;2024-03-02T13:08:07;98364.03;;;16.95;35.77
62592;BME280;48659;41.622;2.276;2024-03-02T13:10:41;98358.97;;;16.53;35.61
62592;BME280;48659;41.622;2.276;2024-03-02T13:13:09;98363.74;;;15.57;37.60
62592;BME280;48659;41.622;2.276;2024-03-02T13:15:40;98358.88;;;16.09;36.06
62592;BME280;48659;41.622;2.276;2024-03-02T13:18:08;98357.63;;;15.60;36.51
62592;BME280;48659;41.622;2.276;2024-03-02T13:20:41;98352.54;;;15.38;36.30
62592;BME280;48659;41.622;2.276;2024-03-02T13:23:09;98353.57;;;16.55;36.01
62592;BME280;48659;41.622;2.276;2024-03-02T13:25:37;98356.46;;;17.01;35.39